Time;durP1;ratioP1;P1;durP2;ratioP2;P2;SDS_P1;SDS_P2;PMS_P1;PMS_P2;Temp;Humidity;BMP_temperature;BMP_pressure;BME280_temperature;BME280_humidity;BME280_pressure;Samples;Min_cycle;Max_cycle;Signal;HPM_P1;HPM_P2
2022/02/08 00:02:11;;;;;;;1.08;0.95;;;;;;;5.97;100.00;99070.34;5012064;28;20053;-67
2022/02/08 00:04:37;;;;;;;1.38;0.95;;;;;;;5.93;100.00;99068.75;5012054;28;20477;-66
2022/02/08 00:07:05;;;;;;;1.63;1.08;;;;;;;5.91;100.00;99090.66;4993965;28;20026;-67
2022/02/08 00:09:31;;;;;;;1.73;1.10;;;;;;;5.94;100.00;99098.16;5005472;28;20030;-67
2022/02/08 00:11:57;;;;;;;1.45;0.90;;;;;;;5.94;100.00;99080.50;4974601;28;20041;-67
2022/02/08 00:14:22;;;;;;;1.33;0.90;;;;;;;5.81;100.00;99047.16;4992483;28;20034;-67
2022/02/08 00:16:48;;;;;;;1.23;1.08;;;;;;;5.77;100.00;99042.22;4989439;28;20030;-67
2022/02/08 00:19:13;;;;;;;2.33;1.30;;;;;;;5.81;100.00;99077.41;5011482;28;20072;-67
2022/02/08 00:21:39;;;;;;;1.30;0.93;;;;;;;5.75;100.00;99048.97;4993471;28;20034;-67
2022/02/08 00:24:04;;;;;;;2.60;1.40;;;;;;;5.97;100.00;99082.94;4993867;28;20032;-67
2022/02/08 00:26:30;;;;;;;1.83;1.30;;;;;;;5.68;100.00;99044.97;4993516;28;20415;-67
2022/02/08 00:28:55;;;;;;;1.30;1.10;;;;;;;5.90;100.00;99101.63;4989331;28;20080;-67
2022/02/08 00:31:21;;;;;;;1.50;1.02;;;;;;;5.63;100.00;99036.66;4992133;28;20030;-67
2022/02/08 00:33:46;;;;;;;3.22;1.20;;;;;;;5.92;100.00;99102.41;4990638;28;20065;-67
2022/02/08 00:36:12;;;;;;;2.17;1.00;;;;;;;5.76;100.00;99080.91;4991593;28;20452;-67
2022/02/08 00:38:37;;;;;;;1.23;1.00;;;;;;;5.75;100.00;99074.19;4994814;28;20030;-65
2022/02/08 00:41:04;;;;;;;1.30;1.10;;;;;;;5.91;100.00;99114.19;4991904;28;20026;-66
2022/02/08 00:43:43;;;;;;;1.73;1.30;;;;;;;5.55;100.00;99046.94;4991583;28;20038;-66
2022/02/08 00:46:15;;;;;;;1.52;1.10;;;;;;;5.76;100.00;99085.94;4991313;28;20034;-66
2022/02/08 00:48:42;;;;;;;2.17;1.15;;;;;;;5.94;100.00;99111.59;4972718;28;20050;-66
2022/02/08 00:51:10;;;;;;;1.65;1.30;;;;;;;5.88;100.00;99126.84;4991512;28;20416;-66
2022/02/08 00:53:36;;;;;;;2.13;1.40;;;;;;;5.86;100.00;99121.00;4991940;28;20449;-66
2022/02/08 00:56:02;;;;;;;2.88;1.65;;;;;;;5.83;100.00;99128.66;4990082;28;20547;-66
2022/02/08 00:58:27;;;;;;;1.85;1.40;;;;;;;5.89;100.00;99125.16;4991481;28;20030;-67
2022/02/08 01:03:28;;;;;;;1.50;1.10;;;;;;;5.45;100.00;99074.91;4389550;28;10000338;-68
2022/02/08 01:06:03;;;;;;;2.55;1.40;;;;;;;5.89;100.00;99131.06;4991515;28;20037;-67
2022/02/08 01:08:32;;;;;;;2.35;1.30;;;;;;;5.68;100.00;99105.47;5007742;28;20097;-68
2022/02/08 01:10:57;;;;;;;1.98;1.45;;;;;;;5.90;100.00;99134.41;4993126;28;20550;-67
2022/02/08 01:13:24;;;;;;;1.90;1.30;;;;;;;5.58;100.00;99106.53;5010661;28;20037;-69
2022/02/08 01:15:49;;;;;;;1.30;1.20;;;;;;;5.84;100.00;99164.81;5011018;28;20034;-68
2022/02/08 01:18:15;;;;;;;1.35;1.20;;;;;;;5.52;100.00;99106.66;5010742;28;20087;-68
2022/02/08 01:20:41;;;;;;;2.60;1.10;;;;;;;5.63;100.00;99127.41;4993295;28;20026;-67
2022/02/08 01:23:10;;;;;;;2.45;0.95;;;;;;;5.89;100.00;99173.09;5010929;28;20492;-68
2022/02/08 01:25:51;;;;;;;1.95;1.17;;;;;;;5.86;100.00;99168.13;4992872;28;20037;-68
2022/02/08 01:28:45;;;;;;;2.78;1.10;;;;;;;5.85;100.00;99177.38;4974252;28;20064;-68
2022/02/08 01:31:09;;;;;;;1.83;1.10;;;;;;;5.84;100.00;99179.94;4990301;28;20439;-67
2022/02/08 01:38:37;;;;;;;2.40;0.90;;;;;;;5.87;100.00;99207.59;4991267;28;20042;-67
2022/02/08 01:44:08;;;;;;;1.23;0.88;;;;;;;5.57;100.00;99178.78;4992852;28;20481;-67
2022/02/08 01:51:46;;;;;;;2.42;1.30;;;;;;;5.72;100.00;99205.38;4987680;28;20045;-67
2022/02/08 01:54:11;;;;;;;1.40;1.20;;;;;;;5.34;100.00;99142.31;5010210;28;20069;-68
2022/02/08 01:56:37;;;;;;;1.40;1.13;;;;;;;5.74;100.00;99209.53;5010428;28;20483;-68
2022/02/08 01:59:02;;;;;;;1.92;1.15;;;;;;;5.75;100.00;99223.78;5010140;28;20504;-68
2022/02/08 02:01:28;;;;;;;2.63;1.10;;;;;;;5.48;100.00;99190.75;4992433;28;20555;-68
2022/02/08 02:03:53;;;;;;;1.60;1.23;;;;;;;5.68;100.00;99212.19;4992242;28;20056;-69
2022/02/08 02:06:18;;;;;;;1.63;1.23;;;;;;;5.38;100.00;99184.25;5009996;28;20428;-67
2022/02/08 02:08:44;;;;;;;1.30;1.05;;;;;;;5.73;100.00;99229.72;5010507;28;20072;-68
2022/02/08 02:11:10;;;;;;;1.77;1.13;;;;;;;5.41;100.00;99207.69;4996276;28;20030;-68
2022/02/08 02:13:44;;;;;;;2.10;1.30;;;;;;;5.59;100.00;99249.31;4996352;28;20061;-68
2022/02/08 02:16:12;;;;;;;2.17;1.40;;;;;;;5.64;100.00;99261.00;5014163;28;20152;-68
2022/02/08 02:18:38;;;;;;;1.70;1.50;;;;;;;5.38;100.00;99219.53;4996393;28;20049;-68
2022/02/08 02:21:04;;;;;;;2.33;1.65;;;;;;;5.57;100.00;99256.94;4996566;28;20155;-67
2022/02/08 02:23:30;;;;;;;2.83;1.40;;;;;;;5.66;100.00;99274.41;4989217;28;20027;-68
2022/02/08 02:25:56;;;;;;;3.03;1.80;;;;;;;5.31;100.00;99193.59;4994130;28;20030;-69
2022/02/08 02:28:22;;;;;;;2.92;1.75;;;;;;;5.36;100.00;99208.63;4992934;28;20452;-68
2022/02/08 02:30:47;;;;;;;1.92;1.50;;;;;;;5.65;100.00;99265.16;4994104;28;20512;-68
2022/02/08 02:33:14;;;;;;;4.07;1.90;;;;;;;5.46;100.00;99241.19;4994523;28;20057;-68
2022/02/08 02:35:41;;;;;;;2.45;1.40;;;;;;;5.54;100.00;99241.88;4976723;28;20038;-68
2022/02/08 02:38:07;;;;;;;2.78;1.77;;;;;;;5.66;100.00;99256.75;4995785;28;20128;-68
2022/02/08 02:40:33;;;;;;;2.65;1.67;;;;;;;5.49;100.00;99243.63;4995918;28;20113;-68
2022/02/08 02:42:59;;;;;;;1.83;1.30;;;;;;;5.53;100.00;99229.28;4995595;28;20421;-68
2022/02/08 02:45:24;;;;;;;3.42;1.30;;;;;;;5.44;100.00;99229.47;5013658;28;20034;-67
2022/02/08 02:47:52;;;;;;;1.77;1.15;;;;;;;5.87;100.00;99278.19;5013874;28;20040;-67
2022/02/08 02:50:27;;;;;;;1.55;1.08;;;;;;;5.72;100.00;99263.38;5013703;28;20156;-67
2022/02/08 02:52:52;;;;;;;2.00;1.30;;;;;;;5.63;100.00;99243.38;4995513;28;20044;-68
2022/02/08 02:55:18;;;;;;;3.08;1.17;;;;;;;5.52;100.00;99235.19;4995756;28;20124;-68
2022/02/08 02:57:47;;;;;;;2.70;1.20;;;;;;;5.52;100.00;99225.97;5012899;28;20038;-68
2022/02/08 03:00:24;;;;;;;2.15;1.10;;;;;;;5.76;100.00;99264.97;4995733;28;20144;-68
2022/02/08 03:02:56;;;;;;;2.10;1.20;;;;;;;5.62;100.00;99265.25;4992369;28;20053;-68
2022/02/08 03:18:45;;;;;;;1.17;1.02;;;;;;;5.35;100.00;99257.38;4993607;28;20053;-68
2022/02/08 03:21:10;;;;;;;3.63;1.00;;;;;;;5.18;100.00;99245.09;4993475;28;20030;-68
2022/02/08 03:23:37;;;;;;;1.55;0.90;;;;;;;5.33;100.00;99276.75;4991885;28;20030;-68
2022/02/08 03:26:04;;;;;;;2.65;1.10;;;;;;;5.33;100.00;99282.59;4990412;28;20030;-67
2022/02/08 03:28:29;;;;;;;1.23;0.90;;;;;;;5.28;100.00;99292.78;4993347;28;20031;-68
2022/02/08 03:30:55;;;;;;;1.30;0.93;;;;;;;5.21;100.00;99292.88;4991509;28;20038;-68
2022/02/08 03:33:22;;;;;;;2.03;1.20;;;;;;;5.12;100.00;99291.38;4993260;28;20038;-68
2022/02/08 03:35:48;;;;;;;1.95;1.00;;;;;;;5.10;100.00;99310.72;4993663;28;20034;-67
2022/02/08 03:38:17;;;;;;;1.58;1.00;;;;;;;5.23;100.00;99329.78;4992978;28;20405;-67
2022/02/08 03:40:48;;;;;;;2.05;1.10;;;;;;;4.88;100.00;99308.56;4993029;28;20412;-67
2022/02/08 03:45:43;;;;;;;1.98;0.95;;;;;;;4.83;100.00;99313.66;4992606;28;20485;-67
2022/02/08 03:48:10;;;;;;;1.23;0.80;;;;;;;4.89;100.00;99338.75;4992959;28;20408;-67
2022/02/08 03:50:35;;;;;;;2.80;0.90;;;;;;;4.89;100.00;99351.34;4991563;28;20044;-68
2022/02/08 03:53:01;;;;;;;1.25;1.00;;;;;;;4.52;100.00;99312.47;4991301;28;20084;-67
2022/02/08 03:55:26;;;;;;;2.17;1.08;;;;;;;4.87;100.00;99370.66;4992967;28;20026;-70
2022/02/08 03:57:51;;;;;;;1.40;1.00;;;;;;;4.66;100.00;99357.56;4992449;28;20104;-67
2022/02/08 04:00:18;;;;;;;1.52;1.10;;;;;;;4.54;100.00;99355.22;4992792;28;20057;-68
2022/02/08 04:02:54;;;;;;;1.73;1.00;;;;;;;4.72;100.00;99391.03;4991106;28;20145;-69
2022/02/08 04:05:27;;;;;;;1.40;0.90;;;;;;;4.71;100.00;99394.44;4991236;28;20057;-67
2022/02/08 04:08:00;;;;;;;1.45;0.88;;;;;;;4.82;100.00;99401.81;4992463;28;20059;-67
2022/02/08 04:10:28;;;;;;;1.90;1.02;;;;;;;4.72;100.00;99402.78;4991188;28;20487;-67
2022/02/08 04:13:10;;;;;;;2.83;1.00;;;;;;;4.72;100.00;99416.22;4992126;28;20032;-67
2022/02/08 04:44:52;;;;;;;2.17;1.45;;;;;;;4.70;100.00;99450.66;4991882;28;20046;-68
2022/02/08 04:47:24;;;;;;;1.23;0.88;;;;;;;4.75;100.00;99443.03;4991276;28;20460;-68
2022/02/08 04:49:52;;;;;;;1.05;0.80;;;;;;;4.53;100.00;99427.38;4992036;28;20034;-69
2022/02/08 04:52:19;;;;;;;0.88;0.70;;;;;;;4.78;100.00;99484.09;4990999;28;20023;-68
2022/02/08 04:54:54;;;;;;;1.40;0.88;;;;;;;4.61;100.00;99475.94;4991932;28;20030;-68
2022/02/08 05:45:34;;;;;;;18.05;9.48;;;;;;;4.28;100.00;99575.25;5013500;28;20372;-70
2022/02/08 05:48:04;;;;;;;21.98;10.70;;;;;;;4.47;100.00;99583.47;4997157;28;20026;-70
2022/02/08 05:55:26;;;;;;;18.42;10.23;;;;;;;4.64;100.00;99643.69;5014567;28;20484;-68
2022/02/08 05:57:52;;;;;;;20.27;12.00;;;;;;;4.52;100.00;99654.72;5013455;28;20034;-69
2022/02/08 06:00:19;;;;;;;5.97;4.13;;;;;;;4.58;100.00;99647.09;4995480;28;20087;-68
2022/02/08 06:02:44;;;;;;;11.02;7.47;;;;;;;4.39;100.00;99615.41;5014342;28;20509;-68
2022/02/08 06:05:16;;;;;;;6.53;3.78;;;;;;;4.40;100.00;99643.06;4996401;28;20172;-69
2022/02/08 06:07:42;;;;;;;3.65;2.13;;;;;;;4.42;100.00;99663.19;4994929;28;20018;-69
2022/02/08 06:10:08;;;;;;;11.45;7.82;;;;;;;4.21;100.00;99615.56;5013506;28;20041;-69
2022/02/08 06:12:46;;;;;;;3.20;2.20;;;;;;;4.44;100.00;99661.50;4995342;28;20033;-69
2022/02/08 06:15:13;;;;;;;4.18;3.00;;;;;;;4.30;100.00;99675.84;4995319;28;20104;-69
2022/02/08 06:17:39;;;;;;;5.57;3.78;;;;;;;4.50;100.00;99681.56;5012840;28;20393;-68
2022/02/08 06:20:06;;;;;;;7.07;5.00;;;;;;;4.49;100.00;99687.47;5013305;28;20044;-69
2022/02/08 06:22:32;;;;;;;6.57;4.70;;;;;;;4.31;100.00;99672.50;5013496;28;20444;-68
2022/02/08 06:24:58;;;;;;;4.68;2.80;;;;;;;4.36;100.00;99673.28;4995820;28;20037;-69
2022/02/08 06:27:32;;;;;;;5.07;3.10;;;;;;;4.38;100.00;99722.75;4996539;28;20029;-68
2022/02/08 06:29:58;;;;;;;5.78;4.50;;;;;;;4.32;100.00;99719.44;5013854;28;20033;-69
2022/02/08 06:32:26;;;;;;;6.03;4.57;;;;;;;4.40;100.00;99702.63;5013909;28;20044;-68
2022/02/08 06:34:54;;;;;;;8.85;6.10;;;;;;;4.48;100.00;99705.91;4996407;28;20033;-69
2022/02/08 06:37:21;;;;;;;6.90;4.55;;;;;;;4.32;100.00;99714.41;4996122;28;20034;-69
2022/02/08 06:39:46;;;;;;;10.35;6.05;;;;;;;4.51;100.00;99717.63;5013882;28;20084;-70
2022/02/08 06:42:12;;;;;;;4.47;2.88;;;;;;;4.59;100.00;99731.84;5013837;28;20029;-70
2022/02/08 06:44:37;;;;;;;12.88;6.35;;;;;;;4.49;100.00;99742.81;5013627;28;20030;-69
2022/02/08 06:47:04;;;;;;;12.30;6.07;;;;;;;4.62;100.00;99736.00;5013665;28;20393;-70
2022/02/08 06:49:29;;;;;;;9.38;5.40;;;;;;;4.57;100.00;99720.94;5013919;28;20037;-69
2022/02/08 06:51:55;;;;;;;11.45;6.10;;;;;;;4.59;100.00;99746.94;5013746;28;20030;-70
2022/02/08 06:54:21;;;;;;;4.97;3.15;;;;;;;4.35;100.00;99685.06;4995660;28;20033;-69
2022/02/08 06:56:47;;;;;;;4.10;2.45;;;;;;;4.79;100.00;99745.09;4995570;28;20045;-69
2022/02/08 06:59:16;;;;;;;6.38;3.55;;;;;;;4.38;100.00;99699.28;5013293;28;20037;-69
2022/02/08 07:01:42;;;;;;;3.60;2.65;;;;;;;4.51;100.00;99720.16;4995755;28;20171;-69
2022/02/08 07:04:11;;;;;;;3.83;3.22;;;;;;;4.59;100.00;99761.19;5013473;28;20592;-69
2022/02/08 07:06:37;;;;;;;5.70;3.80;;;;;;;4.26;100.00;99717.81;4995179;28;20081;-69
2022/02/08 07:09:03;;;;;;;8.70;4.50;;;;;;;4.53;100.00;99754.53;5011936;28;20452;-69
2022/02/08 07:11:28;;;;;;;9.50;5.28;;;;;;;4.44;100.00;99769.69;5013124;28;20454;-69
2022/02/08 07:13:54;;;;;;;7.57;4.55;;;;;;;4.52;100.00;99752.84;4995510;28;20026;-69
2022/02/08 07:16:20;;;;;;;9.02;4.60;;;;;;;4.48;100.00;99768.00;4995295;28;20030;-69
2022/02/08 07:18:46;;;;;;;8.68;5.72;;;;;;;4.38;100.00;99729.47;5013284;28;20046;-70
2022/02/08 07:21:12;;;;;;;5.93;3.75;;;;;;;4.40;100.00;99743.72;5013034;28;20030;-69
2022/02/08 07:23:38;;;;;;;20.85;12.00;;;;;;;4.70;100.00;99772.84;5013212;28;21071;-69
2022/02/08 07:26:04;;;;;;;8.98;6.13;;;;;;;4.73;100.00;99772.84;5012917;28;20451;-68
2022/02/08 07:28:30;;;;;;;5.72;4.30;;;;;;;4.63;100.00;99742.72;4995024;28;20112;-68
2022/02/08 07:31:03;;;;;;;8.48;4.88;;;;;;;4.94;100.00;99777.69;5013352;28;20510;-68
2022/02/08 07:33:31;;;;;;;5.10;3.53;;;;;;;4.72;100.00;99740.09;5012892;28;20030;-68
2022/02/08 07:36:11;;;;;;;4.70;2.80;;;;;;;4.84;100.00;99770.22;4995114;28;20056;-68
2022/02/08 07:38:39;;;;;;;12.32;8.02;;;;;;;4.94;100.00;99780.22;4994976;28;20034;-68
2022/02/08 07:43:30;;;;;;;12.68;6.28;;;;;;;4.33;100.00;99719.47;5012717;28;20456;-68
2022/02/08 07:45:56;;;;;;;14.77;7.55;;;;;;;4.92;100.00;99794.50;5012770;28;20420;-68
2022/02/08 07:48:23;;;;;;;14.05;7.40;;;;;;;4.86;100.00;99801.25;5012498;28;20172;-68
2022/02/08 07:50:51;;;;;;;9.73;6.28;;;;;;;4.90;100.00;99795.34;5012547;28;20065;-68
2022/02/08 07:53:18;;;;;;;8.38;4.55;;;;;;;4.59;100.00;99771.28;5012150;28;20037;-68
2022/02/08 07:55:44;;;;;;;4.32;3.13;;;;;;;4.87;100.00;99807.97;4994955;28;20034;-68
2022/02/08 07:58:10;;;;;;;13.88;6.57;;;;;;;4.69;100.00;99795.53;4994590;28;20040;-68
2022/02/08 08:00:36;;;;;;;12.48;7.75;;;;;;;4.84;100.00;99818.06;5012279;28;20426;-68
2022/02/08 08:03:04;;;;;;;4.50;2.58;;;;;;;4.62;100.00;99798.91;5012081;28;20054;-68
2022/02/08 08:05:31;;;;;;;25.35;16.13;;;;;;;4.98;100.00;99824.66;4994594;28;20033;-68
2022/02/08 08:07:56;;;;;;;7.28;4.47;;;;;;;4.71;100.00;99793.84;4993542;28;20034;-68
2022/02/08 08:10:27;;;;;;;9.65;5.22;;;;;;;4.99;100.00;99828.84;5012168;28;20060;-68
2022/02/08 08:12:54;;;;;;;29.20;15.55;;;;;;;4.95;100.00;99822.16;5012156;28;20084;-68
2022/02/08 08:17:56;;;;;;;21.95;11.38;;;;;;;4.72;100.00;99808.06;5012007;28;20492;-68
2022/02/08 08:20:22;;;;;;;18.60;9.50;;;;;;;4.88;100.00;99799.56;5011604;28;20038;-68
2022/02/08 08:22:47;;;;;;;59.55;27.80;;;;;;;5.14;100.00;99838.81;5012026;28;20038;-68
2022/02/08 08:25:13;;;;;;;62.53;28.83;;;;;;;5.20;100.00;99853.88;4994506;28;20488;-68
2022/02/08 08:27:40;;;;;;;35.40;21.35;;;;;;;5.17;100.00;99795.94;4994185;28;20627;-68
2022/02/08 08:30:07;;;;;;;10.55;6.78;;;;;;;5.44;100.00;99817.53;5012073;28;20026;-68
2022/02/08 08:32:32;;;;;;;9.77;5.85;;;;;;;5.44;100.00;99867.94;4994086;28;20026;-68
2022/02/08 08:34:57;;;;;;;17.13;11.23;;;;;;;5.80;100.00;99869.25;5011516;28;20026;-68
2022/02/08 08:37:23;;;;;;;17.70;10.48;;;;;;;5.57;100.00;99877.06;5011930;28;20040;-68
2022/02/08 08:39:51;;;;;;;12.05;7.05;;;;;;;5.48;100.00;99843.53;4994003;28;20030;-69
2022/02/08 08:48:23;;;;;;;15.75;10.60;;;;;;;5.79;100.00;99842.34;5011653;28;20030;-68
2022/02/08 08:52:55;;;;;;;10.13;7.50;;;;;;;5.75;100.00;99878.56;5011586;28;20108;-68
2022/02/08 08:55:20;;;;;;;10.30;6.32;;;;;;;5.90;100.00;99912.03;5011745;28;20168;-68
2022/02/08 08:57:46;;;;;;;5.03;3.05;;;;;;;5.71;100.00;99913.06;4993569;28;20052;-68
2022/02/08 09:00:12;;;;;;;11.45;6.00;;;;;;;5.77;100.00;99919.72;5011090;28;20116;-68
2022/02/08 09:02:38;;;;;;;5.75;2.95;;;;;;;5.79;100.00;99920.53;4993485;28;20105;-68
2022/02/08 09:05:08;;;;;;;7.78;4.03;;;;;;;5.86;100.00;99889.41;5011311;28;20040;-68
2022/02/08 09:07:34;;;;;;;5.72;4.07;;;;;;;5.71;100.00;99935.75;5011300;28;20034;-68
2022/02/08 09:10:02;;;;;;;8.05;4.40;;;;;;;5.64;100.00;99898.84;5011200;28;20026;-68
2022/02/08 09:28:57;;;;;;;5.05;3.45;;;;;;;6.01;100.00;99944.75;4999411;28;20468;-68
2022/02/08 09:31:23;;;;;;;5.97;3.80;;;;;;;6.05;100.00;99922.00;5010776;28;20125;-68
2022/02/08 09:33:50;;;;;;;5.47;2.05;;;;;;;5.97;100.00;99922.91;5011031;28;20116;-68
2022/02/08 09:36:17;;;;;;;3.80;2.67;;;;;;;6.08;100.00;99967.38;5010743;28;20038;-68
2022/02/08 09:38:43;;;;;;;5.55;3.83;;;;;;;5.95;100.00;99934.72;4993355;28;20026;-68
2022/02/08 09:41:12;;;;;;;3.05;1.60;;;;;;;6.00;100.00;99936.31;4993388;28;20544;-68
2022/02/08 09:43:39;;;;;;;1.67;1.10;;;;;;;6.36;100.00;99957.81;4992940;28;20026;-68
2022/02/08 09:46:06;;;;;;;4.30;2.55;;;;;;;6.26;100.00;99945.31;4993012;28;20076;-67
2022/02/08 09:50:57;;;;;;;12.10;6.55;;;;;;;6.05;100.00;99971.63;5010900;28;20064;-67
2022/02/08 09:53:31;;;;;;;18.52;6.05;;;;;;;6.21;100.00;99967.25;5010843;28;20063;-67
2022/02/08 09:55:56;;;;;;;39.45;14.35;;;;;;;6.10;100.00;99930.34;5010671;28;20039;-67
2022/02/08 09:58:22;;;;;;;15.23;4.50;;;;;;;6.25;100.00;99969.72;5010399;28;20053;-68
2022/02/08 10:00:48;;;;;;;5.95;2.35;;;;;;;6.23;100.00;99948.72;4993194;28;20066;-68
2022/02/08 10:03:16;;;;;;;5.68;2.35;;;;;;;5.97;100.00;99933.84;5010600;28;20057;-68
2022/02/08 10:05:53;;;;;;;2.60;1.48;;;;;;;6.21;100.00;99964.72;4993211;28;20076;-68
2022/02/08 10:08:20;;;;;;;5.38;1.70;;;;;;;6.07;100.00;99949.72;5010474;28;20038;-68
2022/02/08 10:10:46;;;;;;;2.40;1.70;;;;;;;5.85;100.00;99883.53;4992727;28;20049;-68
2022/02/08 10:21:48;;;;;;;3.50;1.90;;;;;;;6.38;100.00;99961.16;5010454;28;20087;-67
2022/02/08 10:24:18;;;;;;;2.92;1.50;;;;;;;6.42;100.00;99947.63;4993018;28;20111;-68
2022/02/08 10:29:25;;;;;;;26.27;7.18;;;;;;;6.76;100.00;99938.78;5010248;28;20128;-68
2022/02/08 10:40:08;;;;;;;6.43;2.35;;;;;;;7.24;100.00;99936.41;5013832;28;20037;-68
2022/02/08 10:42:35;;;;;;;2.35;1.10;;;;;;;7.12;100.00;99931.53;5014021;28;20030;-68
2022/02/08 10:45:03;;;;;;;27.85;6.75;;;;;;;6.98;100.00;99934.28;4996171;28;20033;-68
2022/02/08 10:47:40;;;;;;;5.90;2.42;;;;;;;6.89;100.00;99891.47;4996276;28;20026;-69
2022/02/08 10:50:09;;;;;;;23.40;6.00;;;;;;;6.85;100.00;99883.06;4995873;28;20030;-70
2022/02/08 10:52:37;;;;;;;11.00;4.22;;;;;;;6.86;100.00;99907.50;4996171;28;20061;-69
2022/02/08 10:55:23;;;;;;;3.92;1.70;;;;;;;6.63;100.00;99949.91;5013520;28;20057;-69
2022/02/08 10:58:17;;;;;;;3.45;1.60;;;;;;;6.31;100.00;99878.78;5013580;28;20029;-69
2022/02/08 11:03:13;;;;;;;2.80;1.52;;;;;;;6.35;100.00;99915.75;5013400;28;20054;-69
2022/02/08 11:05:50;;;;;;;4.55;2.50;;;;;;;6.51;100.00;99892.00;5013518;28;20038;-69
2022/02/08 11:08:40;;;;;;;11.75;6.00;;;;;;;6.84;100.00;99893.22;5013536;28;20029;-69
2022/02/08 11:16:43;;;;;;;3.28;2.08;;;;;;;6.62;100.00;99876.69;5013538;28;20038;-69
2022/02/08 11:19:25;;;;;;;7.32;3.97;;;;;;;7.03;100.00;99847.41;5013067;28;20030;-68
2022/02/08 11:22:04;;;;;;;7.88;3.70;;;;;;;6.99;100.00;99845.00;5012995;28;20490;-69
2022/02/08 11:24:40;;;;;;;18.05;8.27;;;;;;;7.23;100.00;99899.38;4995844;28;20030;-69
2022/02/08 11:27:10;;;;;;;6.00;3.28;;;;;;;7.37;100.00;99943.78;5013318;28;20045;-69
2022/02/08 11:29:43;;;;;;;6.53;3.00;;;;;;;7.78;100.00;99928.75;4995258;28;20055;-69
2022/02/08 11:32:52;;;;;;;7.80;3.88;;;;;;;7.51;100.00;99881.19;4995172;28;20033;-69
2022/02/08 11:44:08;;;;;;;8.60;4.80;;;;;;;7.84;98.31;99971.66;5012760;28;20042;-69
2022/02/08 12:07:22;;;;;;;4.63;3.72;;;;;;;7.32;100.00;99952.31;5012265;28;19944;-68
2022/02/08 12:09:56;;;;;;;9.48;5.07;;;;;;;7.20;100.00;99920.47;4994299;28;20069;-69
2022/02/08 12:56:08;;;;;;;3.65;3.20;;;;;;;7.90;87.28;100042.41;5011431;28;20033;-69
2022/02/08 13:01:32;;;;;;;7.28;4.82;;;;;;;7.73;84.10;100029.22;5011006;28;20038;-69
2022/02/08 13:04:11;;;;;;;8.98;5.60;;;;;;;7.82;80.64;100054.34;5009741;28;20132;-69
2022/02/08 13:24:40;;;;;;;4.65;3.25;;;;;;;8.61;72.96;100071.63;5011387;28;20076;-69
2022/02/08 14:06:45;;;;;;;13.25;7.07;;;;;;;7.88;83.73;100130.19;5013585;28;20041;-70
2022/02/08 14:17:31;;;;;;;12.90;9.55;;;;;;;7.48;85.97;100088.63;5013932;28;20457;-69
2022/02/08 14:20:16;;;;;;;12.40;7.53;;;;;;;7.61;84.65;100099.38;5012970;28;20034;-69
2022/02/08 14:30:35;;;;;;;16.50;12.82;;;;;;;7.54;87.29;100120.56;5014228;28;20045;-69
2022/02/08 15:10:23;;;;;;;12.75;9.02;;;;;;;6.78;100.00;100126.53;5013444;28;20416;-69
2022/02/08 15:12:55;;;;;;;14.50;10.45;;;;;;;6.97;100.00;100182.78;4995768;28;20172;-68
2022/02/08 15:15:57;;;;;;;;;;;;;;;6.92;100.00;100190.41;4995904;28;20033;-68
2022/02/08 15:18:23;;;;;;;8.65;6.43;;;;;;;6.90;100.00;100187.06;5012911;28;19966;-68
2022/02/08 15:20:48;;;;;;;8.38;6.30;;;;;;;6.73;100.00;100170.41;5013277;28;20191;-69
2022/02/08 15:23:17;;;;;;;9.50;6.93;;;;;;;6.88;100.00;100190.44;4995378;28;20385;-68
2022/02/08 15:25:43;;;;;;;17.55;9.93;;;;;;;6.74;100.00;100159.41;4995308;28;20481;-67
2022/02/08 15:28:08;;;;;;;13.48;7.97;;;;;;;6.91;100.00;100206.41;4995685;28;20037;-68
2022/02/08 15:30:35;;;;;;;17.85;9.98;;;;;;;6.74;100.00;100167.84;4995272;28;20030;-68
2022/02/08 15:33:05;;;;;;;13.48;9.18;;;;;;;6.59;100.00;100200.84;5013162;28;20049;-69
2022/02/08 15:35:30;;;;;;;22.92;14.80;;;;;;;6.64;100.00;100216.78;5012976;28;20515;-69
2022/02/08 15:37:55;;;;;;;25.67;17.80;;;;;;;6.24;100.00;100164.91;4995094;28;20038;-68
2022/02/08 15:40:21;;;;;;;29.27;19.80;;;;;;;6.65;100.00;100218.47;4994979;28;20037;-68
2022/02/08 15:42:48;;;;;;;31.85;11.32;;;;;;;7.46;100.00;100216.78;4993424;28;20034;-70
2022/02/08 15:45:23;;;;;;;24.90;16.73;;;;;;;6.78;100.00;100227.59;5012669;28;20030;-70
2022/02/08 15:47:50;;;;;;;25.48;16.38;;;;;;;6.62;100.00;100157.00;4994985;28;20116;-69
2022/02/08 15:50:24;;;;;;;21.67;14.93;;;;;;;6.48;100.00;100227.84;5012630;28;20109;-69
2022/02/08 15:56:23;;;;;;;40.17;25.70;;;;;;;6.50;100.00;100237.91;5012917;28;20029;-71
2022/02/08 15:58:26;;;;;;;41.15;26.50;;;;;;;6.26;100.00;100238.94;5001683;28;20041;-68
2022/02/08 16:08:43;;;;;;;58.22;41.70;;;;;;;5.72;100.00;100229.97;5006061;28;20037;-68
2022/02/08 16:13:58;;;;;;;93.43;65.68;;;;;;;5.74;100.00;100235.84;5011814;28;20494;-68
2022/02/08 16:19:18;;;;;;;59.03;38.55;;;;;;;5.92;100.00;100224.84;5012273;28;20083;-68
2022/02/08 16:29:23;;;;;;;11.45;7.95;;;;;;;5.99;97.17;100232.38;5011264;28;20034;-69
2022/02/08 16:59:42;;;;;;;7.88;5.10;;;;;;;6.22;100.00;100363.47;5010666;28;20496;-69
2022/02/08 17:02:07;;;;;;;8.13;5.72;;;;;;;6.03;100.00;100329.91;5003492;28;20050;-68
2022/02/08 17:04:32;;;;;;;8.23;5.60;;;;;;;5.86;100.00;100325.78;4991609;28;20386;-68
2022/02/08 17:06:59;;;;;;;8.13;6.00;;;;;;;6.05;100.00;100370.28;5002028;28;20092;-68
2022/02/08 17:12:15;;;;;;;8.45;6.32;;;;;;;5.98;100.00;100391.34;5010504;28;20034;-68
2022/02/08 17:45:18;;;;;;;8.98;6.05;;;;;;;5.71;97.17;100414.06;4994743;28;20061;-69
2022/02/08 17:47:45;;;;;;;10.95;5.82;;;;;;;5.87;96.51;100426.69;4976934;28;20407;-68
2022/02/08 17:50:15;;;;;;;11.38;7.13;;;;;;;5.90;96.91;100464.50;4994176;28;20030;-71
2022/02/08 17:52:42;;;;;;;13.63;8.48;;;;;;;6.01;96.36;100470.38;4994577;28;20113;-67
2022/02/08 17:55:10;;;;;;;11.93;7.90;;;;;;;5.90;95.29;100471.25;4976688;28;20121;-69
2022/02/08 17:57:35;;;;;;;8.82;5.95;;;;;;;5.86;92.63;100441.81;4993888;28;20030;-68
2022/02/08 18:00:03;;;;;;;7.00;4.93;;;;;;;6.02;90.23;100482.16;4994304;28;20069;-70
2022/02/08 18:02:29;;;;;;;8.75;5.13;;;;;;;5.95;90.37;100482.16;4994657;28;20208;-68
2022/02/08 18:04:56;;;;;;;9.60;6.53;;;;;;;5.98;91.75;100485.53;4994323;28;20034;-69
2022/02/08 18:07:24;;;;;;;8.35;5.95;;;;;;;5.89;91.25;100487.22;4997491;28;20092;-70
2022/02/08 18:09:51;;;;;;;9.07;6.88;;;;;;;6.03;89.49;100500.66;4997908;28;20033;-69
2022/02/08 18:12:18;;;;;;;20.00;12.57;;;;;;;5.89;89.70;100500.69;4997764;28;20034;-70
2022/02/08 18:14:49;;;;;;;9.18;5.38;;;;;;;5.89;88.05;100497.31;4997372;28;20492;-70
2022/02/08 18:17:20;;;;;;;11.38;6.35;;;;;;;5.81;90.33;100497.28;4997734;28;20042;-71
2022/02/08 18:19:56;;;;;;;9.50;5.57;;;;;;;5.73;90.88;100504.00;4980801;28;20030;-71
2022/02/08 18:22:30;;;;;;;8.55;5.80;;;;;;;5.52;91.43;100485.53;4998188;28;20062;-71
2022/02/08 18:27:42;;;;;;;8.00;5.82;;;;;;;5.72;92.04;100524.19;4998378;28;20042;-75
2022/02/08 18:57:15;;;;;;;13.88;7.85;;;;;;;5.08;93.31;100539.22;4994573;28;20124;-70
2022/02/08 19:13:26;;;;;;;25.30;15.23;;;;;;;4.74;99.21;100536.53;4993975;28;20148;-70
2022/02/08 19:21:32;;;;;;;27.80;17.77;;;;;;;4.98;100.00;100600.47;4990996;28;20188;-70
2022/02/08 19:23:40;;;;;;;31.20;19.60;;;;;;;4.60;100.00;100591.88;4987597;28;20173;-69
2022/02/08 19:26:07;;;;;;;34.78;21.00;;;;;;;4.47;100.00;100615.28;4990452;28;20476;-70
2022/02/08 19:28:33;;;;;;;34.63;22.90;;;;;;;4.33;100.00;100602.63;4972016;28;20409;-68
2022/02/08 19:30:59;;;;;;;43.97;26.42;;;;;;;4.58;100.00;100602.75;4989967;28;20026;-68
2022/02/08 19:33:26;;;;;;;39.83;26.63;;;;;;;4.56;100.00;100620.38;4989995;28;20378;-69
2022/02/08 19:35:52;;;;;;;38.67;24.60;;;;;;;4.61;100.00;100630.50;4989361;28;20038;-69
2022/02/08 19:38:19;;;;;;;48.03;29.45;;;;;;;4.21;100.00;100606.72;4972292;28;20034;-69
2022/02/08 19:40:44;;;;;;;45.58;29.13;;;;;;;4.66;100.00;100647.28;4644616;28;9999943;-68
2022/02/08 19:43:10;;;;;;;46.90;29.35;;;;;;;4.34;100.00;100611.84;4990126;28;20037;-70
2022/02/08 19:45:42;;;;;;;59.45;33.80;;;;;;;4.32;100.00;100620.19;4990471;28;20096;-69
2022/02/08 19:48:08;;;;;;;54.40;31.98;;;;;;;4.21;100.00;100626.84;4989576;28;20030;-70
2022/02/08 19:50:36;;;;;;;55.97;31.02;;;;;;;4.21;100.00;100641.94;4989525;28;20033;-70